sensor_id;sensor_type;location;lat;lon;timestamp;P1;durP1;ratioP1;P2;durP2;ratioP2
72115;SDS011;59991;52.140;5.428;2023-07-09T00:00:03;9.88;;;7.50;;
72115;SDS011;59991;52.140;5.428;2023-07-09T00:00:35;8.85;;;6.95;;
72115;SDS011;59991;52.140;5.428;2023-07-09T00:01:11;9.25;;;7.30;;
72115;SDS011;59991;52.140;5.428;2023-07-09T00:01:45;10.10;;;7.55;;
72115;SDS011;59991;52.140;5.428;2023-07-09T00:02:17;9.82;;;8.05;;
72115;SDS011;59991;52.140;5.428;2023-07-09T00:02:48;9.00;;;6.93;;
72115;SDS011;59991;52.140;5.428;2023-07-09T00:03:20;11.30;;;8.15;;
72115;SDS011;59991;52.140;5.428;2023-07-09T00:03:52;15.65;;;7.85;;
72115;SDS011;59991;52.140;5.428;2023-07-09T00:04:24;9.53;;;7.20;;
72115;SDS011;59991;52.140;5.428;2023-07-09T00:04:56;8.82;;;7.32;;
72115;SDS011;59991;52.140;5.428;2023-07-09T00:05:28;14.05;;;7.65;;
72115;SDS011;59991;52.140;5.428;2023-07-09T00:05:59;10.35;;;8.05;;
72115;SDS011;59991;52.140;5.428;2023-07-09T00:06:32;10.13;;;7.60;;
72115;SDS011;59991;52.140;5.428;2023-07-09T00:07:03;8.07;;;7.28;;
72115;SDS011;59991;52.140;5.428;2023-07-09T00:07:37;10.77;;;8.02;;
72115;SDS011;59991;52.140;5.428;2023-07-09T00:08:43;10.15;;;7.63;;
72115;SDS011;59991;52.140;5.428;2023-07-09T00:09:13;12.32;;;8.05;;
72115;SDS011;59991;52.140;5.428;2023-07-09T00:09:47;8.25;;;7.38;;
72115;SDS011;59991;52.140;5.428;2023-07-09T00:10:19;9.57;;;7.20;;
72115;SDS011;59991;52.140;5.428;2023-07-09T00:10:52;10.02;;;7.43;;
72115;SDS011;59991;52.140;5.428;2023-07-09T00:11:24;9.77;;;7.38;;
72115;SDS011;59991;52.140;5.428;2023-07-09T00:11:55;10.40;;;7.95;;
72115;SDS011;59991;52.140;5.428;2023-07-09T00:12:27;9.00;;;8.18;;
72115;SDS011;59991;52.140;5.428;2023-07-09T00:12:59;12.35;;;8.18;;
72115;SDS011;59991;52.140;5.428;2023-07-09T00:13:30;9.75;;;7.70;;
72115;SDS011;59991;52.140;5.428;2023-07-09T00:14:02;9.55;;;7.32;;
72115;SDS011;59991;52.140;5.428;2023-07-09T00:14:35;9.25;;;7.28;;
72115;SDS011;59991;52.140;5.428;2023-07-09T00:15:07;9.80;;;7.70;;
72115;SDS011;59991;52.140;5.428;2023-07-09T00:15:40;7.97;;;6.77;;
72115;SDS011;59991;52.140;5.428;2023-07-09T00:16:16;8.45;;;7.53;;
72115;SDS011;59991;52.140;5.428;2023-07-09T00:16:51;9.40;;;7.47;;
72115;SDS011;59991;52.140;5.428;2023-07-09T00:17:25;11.45;;;8.07;;
72115;SDS011;59991;52.140;5.428;2023-07-09T00:17:59;9.38;;;7.68;;
72115;SDS011;59991;52.140;5.428;2023-07-09T00:18:31;8.60;;;7.13;;
72115;SDS011;59991;52.140;5.428;2023-07-09T00:19:04;13.57;;;8.50;;
72115;SDS011;59991;52.140;5.428;2023-07-09T00:19:42;9.07;;;7.53;;
72115;SDS011;59991;52.140;5.428;2023-07-09T00:20:17;9.88;;;8.00;;
72115;SDS011;59991;52.140;5.428;2023-07-09T00:20:49;9.95;;;7.55;;
72115;SDS011;59991;52.140;5.428;2023-07-09T00:21:21;10.53;;;7.70;;
72115;SDS011;59991;52.140;5.428;2023-07-09T00:21:55;10.32;;;8.02;;
72115;SDS011;59991;52.140;5.428;2023-07-09T00:22:26;11.32;;;8.25;;
72115;SDS011;59991;52.140;5.428;2023-07-09T00:22:58;9.63;;;8.05;;
72115;SDS011;59991;52.140;5.428;2023-07-09T00:23:29;11.70;;;8.85;;
72115;SDS011;59991;52.140;5.428;2023-07-09T00:24:01;10.38;;;7.80;;
72115;SDS011;59991;52.140;5.428;2023-07-09T00:24:35;12.45;;;8.02;;
72115;SDS011;59991;52.140;5.428;2023-07-09T00:25:10;10.93;;;8.75;;
72115;SDS011;59991;52.140;5.428;2023-07-09T00:25:48;11.57;;;8.68;;
72115;SDS011;59991;52.140;5.428;2023-07-09T00:26:19;11.20;;;8.40;;
72115;SDS011;59991;52.140;5.428;2023-07-09T00:26:57;9.07;;;7.87;;
72115;SDS011;59991;52.140;5.428;2023-07-09T00:27:29;9.88;;;8.20;;
72115;SDS011;59991;52.140;5.428;2023-07-09T00:28:02;10.35;;;8.50;;
72115;SDS011;59991;52.140;5.428;2023-07-09T00:28:34;10.20;;;8.15;;
72115;SDS011;59991;52.140;5.428;2023-07-09T00:29:11;13.05;;;9.10;;
72115;SDS011;59991;52.140;5.428;2023-07-09T00:29:43;10.82;;;7.60;;
72115;SDS011;59991;52.140;5.428;2023-07-09T00:30:16;12.98;;;8.50;;
72115;SDS011;59991;52.140;5.428;2023-07-09T00:30:50;11.90;;;8.40;;
72115;SDS011;59991;52.140;5.428;2023-07-09T00:31:22;11.35;;;8.55;;
72115;SDS011;59991;52.140;5.428;2023-07-09T00:31:54;10.23;;;8.13;;
72115;SDS011;59991;52.140;5.428;2023-07-09T00:32:26;10.70;;;8.10;;
72115;SDS011;59991;52.140;5.428;2023-07-09T00:32:59;10.05;;;8.35;;
72115;SDS011;59991;52.140;5.428;2023-07-09T00:33:31;11.52;;;8.63;;
72115;SDS011;59991;52.140;5.428;2023-07-09T00:34:03;12.23;;;7.97;;
72115;SDS011;59991;52.140;5.428;2023-07-09T00:34:34;8.90;;;8.02;;
72115;SDS011;59991;52.140;5.428;2023-07-09T00:35:06;10.18;;;8.23;;
72115;SDS011;59991;52.140;5.428;2023-07-09T00:35:38;9.30;;;8.30;;
72115;SDS011;59991;52.140;5.428;2023-07-09T00:36:15;12.05;;;7.32;;
72115;SDS011;59991;52.140;5.428;2023-07-09T00:36:49;10.57;;;7.82;;
72115;SDS011;59991;52.140;5.428;2023-07-09T00:37:23;12.05;;;8.40;;
72115;SDS011;59991;52.140;5.428;2023-07-09T00:37:59;9.93;;;8.43;;
72115;SDS011;59991;52.140;5.428;2023-07-09T00:38:32;11.70;;;8.23;;
72115;SDS011;59991;52.140;5.428;2023-07-09T00:39:14;10.82;;;8.00;;
72115;SDS011;59991;52.140;5.428;2023-07-09T00:39:49;11.05;;;7.40;;
72115;SDS011;59991;52.140;5.428;2023-07-09T00:40:21;10.73;;;8.60;;
72115;SDS011;59991;52.140;5.428;2023-07-09T00:41:01;9.32;;;8.10;;
72115;SDS011;59991;52.140;5.428;2023-07-09T00:41:36;10.52;;;8.65;;
72115;SDS011;59991;52.140;5.428;2023-07-09T00:42:11;14.82;;;9.05;;
72115;SDS011;59991;52.140;5.428;2023-07-09T00:42:47;10.32;;;9.07;;
72115;SDS011;59991;52.140;5.428;2023-07-09T00:43:20;12.43;;;8.85;;
72115;SDS011;59991;52.140;5.428;2023-07-09T00:43:52;11.47;;;8.83;;
72115;SDS011;59991;52.140;5.428;2023-07-09T00:44:25;10.25;;;8.73;;
72115;SDS011;59991;52.140;5.428;2023-07-09T00:45:04;12.45;;;9.30;;
72115;SDS011;59991;52.140;5.428;2023-07-09T00:46:08;10.90;;;8.98;;
72115;SDS011;59991;52.140;5.428;2023-07-09T00:48:30;12.35;;;8.98;;
72115;SDS011;59991;52.140;5.428;2023-07-09T00:49:04;10.88;;;8.57;;
72115;SDS011;59991;52.140;5.428;2023-07-09T00:49:39;11.45;;;9.27;;
72115;SDS011;59991;52.140;5.428;2023-07-09T00:50:35;12.00;;;8.77;;
72115;SDS011;59991;52.140;5.428;2023-07-09T00:51:13;12.27;;;8.83;;
72115;SDS011;59991;52.140;5.428;2023-07-09T00:51:46;10.77;;;9.38;;
72115;SDS011;59991;52.140;5.428;2023-07-09T00:52:23;10.30;;;8.43;;
72115;SDS011;59991;52.140;5.428;2023-07-09T00:53:08;12.77;;;8.65;;
72115;SDS011;59991;52.140;5.428;2023-07-09T00:53:44;9.73;;;8.55;;
72115;SDS011;59991;52.140;5.428;2023-07-09T00:54:25;15.52;;;9.38;;
72115;SDS011;59991;52.140;5.428;2023-07-09T00:55:05;10.13;;;8.88;;
72115;SDS011;59991;52.140;5.428;2023-07-09T00:55:41;12.82;;;8.98;;
72115;SDS011;59991;52.140;5.428;2023-07-09T00:56:18;12.73;;;9.27;;
72115;SDS011;59991;52.140;5.428;2023-07-09T00:57:00;10.80;;;8.45;;
72115;SDS011;59991;52.140;5.428;2023-07-09T00:57:37;12.70;;;8.77;;
72115;SDS011;59991;52.140;5.428;2023-07-09T00:58:10;11.13;;;9.88;;
72115;SDS011;59991;52.140;5.428;2023-07-09T00:58:46;14.52;;;9.93;;
72115;SDS011;59991;52.140;5.428;2023-07-09T00:59:20;12.25;;;10.30;;
72115;SDS011;59991;52.140;5.428;2023-07-09T00:59:59;11.93;;;9.30;;
72115;SDS011;59991;52.140;5.428;2023-07-09T01:00:46;10.50;;;9.23;;
72115;SDS011;59991;52.140;5.428;2023-07-09T01:01:24;11.07;;;8.77;;
72115;SDS011;59991;52.140;5.428;2023-07-09T01:01:56;12.80;;;9.93;;
72115;SDS011;59991;52.140;5.428;2023-07-09T01:02:28;11.43;;;8.82;;
72115;SDS011;59991;52.140;5.428;2023-07-09T01:03:00;11.15;;;8.60;;
72115;SDS011;59991;52.140;5.428;2023-07-09T01:03:35;11.80;;;8.87;;
72115;SDS011;59991;52.140;5.428;2023-07-09T01:04:11;12.40;;;9.10;;
72115;SDS011;59991;52.140;5.428;2023-07-09T01:04:43;10.15;;;8.85;;
72115;SDS011;59991;52.140;5.428;2023-07-09T01:05:15;10.00;;;8.77;;
72115;SDS011;59991;52.140;5.428;2023-07-09T01:05:51;12.05;;;8.93;;
72115;SDS011;59991;52.140;5.428;2023-07-09T01:06:27;11.35;;;9.02;;
72115;SDS011;59991;52.140;5.428;2023-07-09T01:07:03;11.13;;;8.75;;
72115;SDS011;59991;52.140;5.428;2023-07-09T01:07:35;11.98;;;9.40;;
72115;SDS011;59991;52.140;5.428;2023-07-09T01:08:06;12.27;;;9.35;;
72115;SDS011;59991;52.140;5.428;2023-07-09T01:08:40;11.02;;;8.65;;
72115;SDS011;59991;52.140;5.428;2023-07-09T01:09:15;12.80;;;9.23;;
72115;SDS011;59991;52.140;5.428;2023-07-09T01:09:48;10.48;;;8.75;;
72115;SDS011;59991;52.140;5.428;2023-07-09T01:10:19;14.00;;;10.05;;
72115;SDS011;59991;52.140;5.428;2023-07-09T01:10:51;12.82;;;9.43;;
72115;SDS011;59991;52.140;5.428;2023-07-09T01:11:23;13.98;;;9.63;;
72115;SDS011;59991;52.140;5.428;2023-07-09T01:11:54;9.85;;;8.90;;
72115;SDS011;59991;52.140;5.428;2023-07-09T01:12:27;12.20;;;9.23;;
72115;SDS011;59991;52.140;5.428;2023-07-09T01:12:59;10.25;;;8.88;;
72115;SDS011;59991;52.140;5.428;2023-07-09T01:13:30;10.65;;;9.55;;
72115;SDS011;59991;52.140;5.428;2023-07-09T01:14:07;12.20;;;9.55;;
72115;SDS011;59991;52.140;5.428;2023-07-09T01:14:42;11.27;;;8.67;;
72115;SDS011;59991;52.140;5.428;2023-07-09T01:15:14;12.27;;;9.63;;
72115;SDS011;59991;52.140;5.428;2023-07-09T01:15:46;9.63;;;8.35;;
72115;SDS011;59991;52.140;5.428;2023-07-09T01:16:19;10.23;;;9.00;;
72115;SDS011;59991;52.140;5.428;2023-07-09T01:16:57;12.73;;;9.13;;
72115;SDS011;59991;52.140;5.428;2023-07-09T01:17:32;12.05;;;9.57;;
72115;SDS011;59991;52.140;5.428;2023-07-09T01:18:04;14.25;;;9.30;;
72115;SDS011;59991;52.140;5.428;2023-07-09T01:18:35;12.95;;;8.65;;
72115;SDS011;59991;52.140;5.428;2023-07-09T01:19:08;9.52;;;8.48;;
72115;SDS011;59991;52.140;5.428;2023-07-09T01:19:40;11.75;;;9.18;;
72115;SDS011;59991;52.140;5.428;2023-07-09T01:20:17;10.10;;;8.67;;
72115;SDS011;59991;52.140;5.428;2023-07-09T01:21:01;12.02;;;9.07;;
72115;SDS011;59991;52.140;5.428;2023-07-09T01:21:38;10.40;;;9.13;;
72115;SDS011;59991;52.140;5.428;2023-07-09T01:22:11;11.57;;;8.75;;
72115;SDS011;59991;52.140;5.428;2023-07-09T01:22:50;13.13;;;8.27;;
72115;SDS011;59991;52.140;5.428;2023-07-09T01:23:25;11.30;;;9.07;;
72115;SDS011;59991;52.140;5.428;2023-07-09T01:23:58;9.18;;;8.23;;
72115;SDS011;59991;52.140;5.428;2023-07-09T01:24:52;10.30;;;8.18;;
72115;SDS011;59991;52.140;5.428;2023-07-09T01:25:24;14.43;;;10.05;;
72115;SDS011;59991;52.140;5.428;2023-07-09T01:25:56;10.85;;;9.65;;
72115;SDS011;59991;52.140;5.428;2023-07-09T01:26:27;12.03;;;9.73;;
72115;SDS011;59991;52.140;5.428;2023-07-09T01:26:59;12.90;;;9.00;;
72115;SDS011;59991;52.140;5.428;2023-07-09T01:27:37;12.68;;;9.48;;
72115;SDS011;59991;52.140;5.428;2023-07-09T01:28:10;11.63;;;9.35;;
72115;SDS011;59991;52.140;5.428;2023-07-09T01:28:42;10.75;;;9.30;;
72115;SDS011;59991;52.140;5.428;2023-07-09T01:29:14;10.15;;;8.98;;
72115;SDS011;59991;52.140;5.428;2023-07-09T01:29:46;15.50;;;9.35;;
72115;SDS011;59991;52.140;5.428;2023-07-09T01:30:23;11.95;;;9.18;;
72115;SDS011;59991;52.140;5.428;2023-07-09T01:30:57;13.70;;;9.70;;
72115;SDS011;59991;52.140;5.428;2023-07-09T01:31:29;13.85;;;10.40;;
72115;SDS011;59991;52.140;5.428;2023-07-09T01:32:00;10.23;;;8.70;;
72115;SDS011;59991;52.140;5.428;2023-07-09T01:32:32;12.57;;;9.35;;
72115;SDS011;59991;52.140;5.428;2023-07-09T01:33:04;11.60;;;8.80;;
72115;SDS011;59991;52.140;5.428;2023-07-09T01:33:37;13.13;;;9.07;;
72115;SDS011;59991;52.140;5.428;2023-07-09T01:34:10;12.18;;;9.43;;
72115;SDS011;59991;52.140;5.428;2023-07-09T01:34:42;12.32;;;9.95;;
72115;SDS011;59991;52.140;5.428;2023-07-09T01:35:14;11.52;;;10.32;;
72115;SDS011;59991;52.140;5.428;2023-07-09T01:35:46;14.15;;;9.27;;
72115;SDS011;59991;52.140;5.428;2023-07-09T01:36:20;10.95;;;9.68;;
72115;SDS011;59991;52.140;5.428;2023-07-09T01:36:55;12.93;;;9.63;;
72115;SDS011;59991;52.140;5.428;2023-07-09T01:37:27;14.10;;;9.83;;
72115;SDS011;59991;52.140;5.428;2023-07-09T01:37:59;12.57;;;9.63;;
72115;SDS011;59991;52.140;5.428;2023-07-09T01:38:30;11.98;;;8.98;;
72115;SDS011;59991;52.140;5.428;2023-07-09T01:39:02;14.60;;;9.32;;
72115;SDS011;59991;52.140;5.428;2023-07-09T01:39:34;15.10;;;10.00;;
72115;SDS011;59991;52.140;5.428;2023-07-09T01:40:08;9.95;;;8.88;;
72115;SDS011;59991;52.140;5.428;2023-07-09T01:40:59;10.82;;;9.20;;
72115;SDS011;59991;52.140;5.428;2023-07-09T01:41:30;12.85;;;9.82;;
72115;SDS011;59991;52.140;5.428;2023-07-09T01:42:05;12.88;;;9.93;;
72115;SDS011;59991;52.140;5.428;2023-07-09T01:42:39;12.00;;;9.77;;
72115;SDS011;59991;52.140;5.428;2023-07-09T01:43:11;10.27;;;8.97;;
72115;SDS011;59991;52.140;5.428;2023-07-09T01:43:43;15.07;;;10.77;;
72115;SDS011;59991;52.140;5.428;2023-07-09T01:44:14;10.63;;;9.50;;
72115;SDS011;59991;52.140;5.428;2023-07-09T01:44:46;11.15;;;9.00;;
72115;SDS011;59991;52.140;5.428;2023-07-09T01:45:17;13.18;;;9.38;;
72115;SDS011;59991;52.140;5.428;2023-07-09T01:45:51;13.73;;;9.60;;
72115;SDS011;59991;52.140;5.428;2023-07-09T01:46:24;13.93;;;10.30;;
72115;SDS011;59991;52.140;5.428;2023-07-09T01:46:55;11.80;;;9.18;;
72115;SDS011;59991;52.140;5.428;2023-07-09T01:47:27;10.57;;;9.00;;
72115;SDS011;59991;52.140;5.428;2023-07-09T01:47:58;13.52;;;8.50;;
72115;SDS011;59991;52.140;5.428;2023-07-09T01:48:30;13.30;;;9.60;;
72115;SDS011;59991;52.140;5.428;2023-07-09T01:49:02;11.73;;;8.80;;
72115;SDS011;59991;52.140;5.428;2023-07-09T01:49:33;11.35;;;8.75;;
72115;SDS011;59991;52.140;5.428;2023-07-09T01:50:05;11.82;;;8.93;;
72115;SDS011;59991;52.140;5.428;2023-07-09T01:50:38;16.20;;;9.35;;
72115;SDS011;59991;52.140;5.428;2023-07-09T01:51:14;14.18;;;9.60;;
72115;SDS011;59991;52.140;5.428;2023-07-09T01:51:49;11.77;;;8.65;;
72115;SDS011;59991;52.140;5.428;2023-07-09T01:52:21;11.00;;;9.70;;
72115;SDS011;59991;52.140;5.428;2023-07-09T01:52:53;12.73;;;10.35;;
72115;SDS011;59991;52.140;5.428;2023-07-09T01:53:26;11.32;;;9.10;;
72115;SDS011;59991;52.140;5.428;2023-07-09T01:53:58;11.33;;;9.47;;
72115;SDS011;59991;52.140;5.428;2023-07-09T01:54:31;13.00;;;9.88;;
72115;SDS011;59991;52.140;5.428;2023-07-09T01:55:05;10.20;;;8.88;;
72115;SDS011;59991;52.140;5.428;2023-07-09T01:55:37;11.80;;;10.30;;
72115;SDS011;59991;52.140;5.428;2023-07-09T01:56:08;10.00;;;9.00;;
72115;SDS011;59991;52.140;5.428;2023-07-09T01:56:41;14.95;;;10.20;;
72115;SDS011;59991;52.140;5.428;2023-07-09T01:57:14;10.52;;;8.68;;
72115;SDS011;59991;52.140;5.428;2023-07-09T01:57:50;10.50;;;9.07;;
72115;SDS011;59991;52.140;5.428;2023-07-09T01:58:23;10.38;;;9.30;;
72115;SDS011;59991;52.140;5.428;2023-07-09T01:58:56;12.32;;;10.07;;
72115;SDS011;59991;52.140;5.428;2023-07-09T01:59:32;12.03;;;9.40;;
72115;SDS011;59991;52.140;5.428;2023-07-09T02:00:05;11.65;;;9.73;;
72115;SDS011;59991;52.140;5.428;2023-07-09T02:00:42;11.30;;;9.88;;
72115;SDS011;59991;52.140;5.428;2023-07-09T02:01:14;12.98;;;10.10;;
72115;SDS011;59991;52.140;5.428;2023-07-09T02:01:48;12.65;;;9.68;;
72115;SDS011;59991;52.140;5.428;2023-07-09T02:02:21;11.88;;;10.65;;
72115;SDS011;59991;52.140;5.428;2023-07-09T02:02:53;13.77;;;10.75;;
72115;SDS011;59991;52.140;5.428;2023-07-09T02:03:26;14.60;;;10.68;;
72115;SDS011;59991;52.140;5.428;2023-07-09T02:03:57;12.18;;;10.35;;
72115;SDS011;59991;52.140;5.428;2023-07-09T02:04:29;11.25;;;10.05;;
72115;SDS011;59991;52.140;5.428;2023-07-09T02:05:03;12.03;;;10.33;;
72115;SDS011;59991;52.140;5.428;2023-07-09T02:05:35;11.20;;;9.65;;
72115;SDS011;59991;52.140;5.428;2023-07-09T02:06:07;13.93;;;10.52;;
72115;SDS011;59991;52.140;5.428;2023-07-09T02:06:42;11.57;;;10.15;;
72115;SDS011;59991;52.140;5.428;2023-07-09T02:07:13;15.35;;;9.98;;
72115;SDS011;59991;52.140;5.428;2023-07-09T02:07:46;16.25;;;11.07;;
72115;SDS011;59991;52.140;5.428;2023-07-09T02:08:18;10.43;;;9.40;;
72115;SDS011;59991;52.140;5.428;2023-07-09T02:08:50;11.75;;;10.45;;
72115;SDS011;59991;52.140;5.428;2023-07-09T02:09:21;13.98;;;10.25;;
72115;SDS011;59991;52.140;5.428;2023-07-09T02:09:53;13.23;;;9.82;;
72115;SDS011;59991;52.140;5.428;2023-07-09T02:10:25;13.53;;;9.60;;
72115;SDS011;59991;52.140;5.428;2023-07-09T02:10:56;11.30;;;10.10;;
72115;SDS011;59991;52.140;5.428;2023-07-09T02:11:28;11.02;;;9.73;;
72115;SDS011;59991;52.140;5.428;2023-07-09T02:11:59;13.65;;;10.38;;
72115;SDS011;59991;52.140;5.428;2023-07-09T02:12:31;13.73;;;10.18;;
72115;SDS011;59991;52.140;5.428;2023-07-09T02:13:02;14.30;;;10.35;;
72115;SDS011;59991;52.140;5.428;2023-07-09T02:13:34;12.20;;;10.63;;
72115;SDS011;59991;52.140;5.428;2023-07-09T02:14:05;13.95;;;10.15;;
72115;SDS011;59991;52.140;5.428;2023-07-09T02:14:37;11.57;;;9.90;;
72115;SDS011;59991;52.140;5.428;2023-07-09T02:15:10;14.13;;;10.75;;
72115;SDS011;59991;52.140;5.428;2023-07-09T02:15:42;13.50;;;9.90;;
72115;SDS011;59991;52.140;5.428;2023-07-09T02:16:15;13.98;;;9.93;;
72115;SDS011;59991;52.140;5.428;2023-07-09T02:16:46;12.05;;;9.35;;
72115;SDS011;59991;52.140;5.428;2023-07-09T02:17:18;12.50;;;10.27;;
72115;SDS011;59991;52.140;5.428;2023-07-09T02:17:50;11.90;;;9.50;;
72115;SDS011;59991;52.140;5.428;2023-07-09T02:18:23;12.80;;;9.40;;
72115;SDS011;59991;52.140;5.428;2023-07-09T02:18:55;13.00;;;9.90;;
72115;SDS011;59991;52.140;5.428;2023-07-09T02:19:27;15.18;;;10.57;;
72115;SDS011;59991;52.140;5.428;2023-07-09T02:20:00;11.48;;;10.10;;
72115;SDS011;59991;52.140;5.428;2023-07-09T02:20:31;10.93;;;9.00;;
72115;SDS011;59991;52.140;5.428;2023-07-09T02:21:03;15.20;;;10.43;;
72115;SDS011;59991;52.140;5.428;2023-07-09T02:21:34;12.68;;;9.20;;
72115;SDS011;59991;52.140;5.428;2023-07-09T02:22:06;12.77;;;9.57;;
72115;SDS011;59991;52.140;5.428;2023-07-09T02:22:39;14.35;;;10.10;;
72115;SDS011;59991;52.140;5.428;2023-07-09T02:23:12;13.45;;;10.77;;
72115;SDS011;59991;52.140;5.428;2023-07-09T02:23:43;10.13;;;9.13;;
72115;SDS011;59991;52.140;5.428;2023-07-09T02:24:15;15.95;;;10.45;;
72115;SDS011;59991;52.140;5.428;2023-07-09T02:24:46;13.85;;;9.80;;
72115;SDS011;59991;52.140;5.428;2023-07-09T02:25:18;12.18;;;10.15;;
72115;SDS011;59991;52.140;5.428;2023-07-09T02:25:49;11.48;;;9.82;;
72115;SDS011;59991;52.140;5.428;2023-07-09T02:26:21;13.67;;;9.60;;
72115;SDS011;59991;52.140;5.428;2023-07-09T02:26:56;11.23;;;8.98;;
72115;SDS011;59991;52.140;5.428;2023-07-09T02:27:29;11.10;;;9.80;;
72115;SDS011;59991;52.140;5.428;2023-07-09T02:28:01;16.10;;;9.48;;
72115;SDS011;59991;52.140;5.428;2023-07-09T02:28:32;15.15;;;10.40;;
72115;SDS011;59991;52.140;5.428;2023-07-09T02:29:04;14.30;;;10.00;;
72115;SDS011;59991;52.140;5.428;2023-07-09T02:29:35;11.20;;;9.38;;
72115;SDS011;59991;52.140;5.428;2023-07-09T02:30:08;11.52;;;10.05;;
72115;SDS011;59991;52.140;5.428;2023-07-09T02:30:42;10.95;;;9.23;;
72115;SDS011;59991;52.140;5.428;2023-07-09T02:31:13;10.70;;;9.60;;
72115;SDS011;59991;52.140;5.428;2023-07-09T02:31:48;11.37;;;9.50;;
72115;SDS011;59991;52.140;5.428;2023-07-09T02:32:21;10.85;;;8.93;;
72115;SDS011;59991;52.140;5.428;2023-07-09T02:32:54;13.95;;;9.52;;
72115;SDS011;59991;52.140;5.428;2023-07-09T02:33:26;15.43;;;10.70;;
72115;SDS011;59991;52.140;5.428;2023-07-09T02:33:57;12.23;;;9.52;;
72115;SDS011;59991;52.140;5.428;2023-07-09T02:34:29;10.88;;;9.77;;
72115;SDS011;59991;52.140;5.428;2023-07-09T02:35:01;12.63;;;9.52;;
72115;SDS011;59991;52.140;5.428;2023-07-09T02:35:33;13.48;;;10.13;;
72115;SDS011;59991;52.140;5.428;2023-07-09T02:36:07;12.85;;;10.25;;
72115;SDS011;59991;52.140;5.428;2023-07-09T02:36:38;10.38;;;9.25;;
72115;SDS011;59991;52.140;5.428;2023-07-09T02:37:14;9.33;;;8.37;;
72115;SDS011;59991;52.140;5.428;2023-07-09T02:37:49;14.07;;;9.73;;
72115;SDS011;59991;52.140;5.428;2023-07-09T02:38:20;13.15;;;10.15;;
72115;SDS011;59991;52.140;5.428;2023-07-09T02:38:52;13.15;;;9.68;;
72115;SDS011;59991;52.140;5.428;2023-07-09T02:39:23;12.25;;;9.55;;
72115;SDS011;59991;52.140;5.428;2023-07-09T02:39:56;11.52;;;10.32;;
72115;SDS011;59991;52.140;5.428;2023-07-09T02:40:27;12.60;;;9.88;;
72115;SDS011;59991;52.140;5.428;2023-07-09T02:41:00;12.50;;;10.05;;
72115;SDS011;59991;52.140;5.428;2023-07-09T02:41:31;10.35;;;8.95;;
72115;SDS011;59991;52.140;5.428;2023-07-09T02:42:02;11.07;;;9.98;;
72115;SDS011;59991;52.140;5.428;2023-07-09T02:42:34;15.10;;;9.87;;
72115;SDS011;59991;52.140;5.428;2023-07-09T02:43:06;9.75;;;8.82;;
72115;SDS011;59991;52.140;5.428;2023-07-09T02:43:38;12.40;;;10.45;;
72115;SDS011;59991;52.140;5.428;2023-07-09T02:44:09;13.10;;;9.90;;
72115;SDS011;59991;52.140;5.428;2023-07-09T02:44:41;12.80;;;9.95;;
72115;SDS011;59991;52.140;5.428;2023-07-09T02:45:13;10.98;;;9.85;;
72115;SDS011;59991;52.140;5.428;2023-07-09T02:45:45;12.65;;;10.10;;
72115;SDS011;59991;52.140;5.428;2023-07-09T02:46:16;12.98;;;10.32;;
72115;SDS011;59991;52.140;5.428;2023-07-09T02:46:48;14.25;;;11.95;;
72115;SDS011;59991;52.140;5.428;2023-07-09T02:47:20;13.02;;;10.38;;
72115;SDS011;59991;52.140;5.428;2023-07-09T02:47:51;11.53;;;10.27;;
72115;SDS011;59991;52.140;5.428;2023-07-09T02:48:23;11.75;;;9.90;;
72115;SDS011;59991;52.140;5.428;2023-07-09T02:48:55;13.75;;;10.80;;
72115;SDS011;59991;52.140;5.428;2023-07-09T02:49:26;12.50;;;11.15;;
72115;SDS011;59991;52.140;5.428;2023-07-09T02:49:58;13.80;;;10.85;;
72115;SDS011;59991;52.140;5.428;2023-07-09T02:50:29;15.25;;;10.52;;
72115;SDS011;59991;52.140;5.428;2023-07-09T02:51:01;12.43;;;9.98;;
72115;SDS011;59991;52.140;5.428;2023-07-09T02:51:32;11.90;;;9.57;;
72115;SDS011;59991;52.140;5.428;2023-07-09T02:52:05;13.52;;;10.93;;
72115;SDS011;59991;52.140;5.428;2023-07-09T02:52:37;13.40;;;10.35;;
72115;SDS011;59991;52.140;5.428;2023-07-09T02:53:09;12.87;;;10.23;;
72115;SDS011;59991;52.140;5.428;2023-07-09T02:53:40;12.95;;;9.65;;
72115;SDS011;59991;52.140;5.428;2023-07-09T02:54:12;11.50;;;10.13;;
72115;SDS011;59991;52.140;5.428;2023-07-09T02:54:43;15.50;;;10.60;;
72115;SDS011;59991;52.140;5.428;2023-07-09T02:55:15;11.23;;;9.93;;
72115;SDS011;59991;52.140;5.428;2023-07-09T02:55:46;12.98;;;10.40;;
72115;SDS011;59991;52.140;5.428;2023-07-09T02:56:18;14.30;;;10.73;;
72115;SDS011;59991;52.140;5.428;2023-07-09T02:56:50;11.15;;;9.90;;
72115;SDS011;59991;52.140;5.428;2023-07-09T02:57:21;12.00;;;10.07;;
72115;SDS011;59991;52.140;5.428;2023-07-09T02:57:53;10.65;;;9.43;;
72115;SDS011;59991;52.140;5.428;2023-07-09T02:58:24;14.50;;;9.87;;
72115;SDS011;59991;52.140;5.428;2023-07-09T02:58:56;11.75;;;9.88;;
72115;SDS011;59991;52.140;5.428;2023-07-09T02:59:28;10.90;;;9.20;;
72115;SDS011;59991;52.140;5.428;2023-07-09T03:00:00;11.00;;;9.38;;
72115;SDS011;59991;52.140;5.428;2023-07-09T03:00:37;14.55;;;9.90;;
72115;SDS011;59991;52.140;5.428;2023-07-09T03:01:09;11.25;;;10.10;;
72115;SDS011;59991;52.140;5.428;2023-07-09T03:01:40;14.95;;;9.43;;
72115;SDS011;59991;52.140;5.428;2023-07-09T03:02:13;17.35;;;10.60;;
72115;SDS011;59991;52.140;5.428;2023-07-09T03:02:44;11.45;;;9.65;;
72115;SDS011;59991;52.140;5.428;2023-07-09T03:03:16;12.88;;;9.00;;
72115;SDS011;59991;52.140;5.428;2023-07-09T03:03:47;11.50;;;9.20;;
72115;SDS011;59991;52.140;5.428;2023-07-09T03:04:19;12.40;;;9.80;;
72115;SDS011;59991;52.140;5.428;2023-07-09T03:04:51;11.85;;;9.48;;
72115;SDS011;59991;52.140;5.428;2023-07-09T03:05:23;14.85;;;9.55;;
72115;SDS011;59991;52.140;5.428;2023-07-09T03:05:54;15.50;;;10.18;;
72115;SDS011;59991;52.140;5.428;2023-07-09T03:06:26;13.27;;;10.38;;
72115;SDS011;59991;52.140;5.428;2023-07-09T03:06:58;13.05;;;9.75;;
72115;SDS011;59991;52.140;5.428;2023-07-09T03:07:31;10.85;;;9.75;;
72115;SDS011;59991;52.140;5.428;2023-07-09T03:08:02;15.80;;;10.48;;
72115;SDS011;59991;52.140;5.428;2023-07-09T03:08:34;11.05;;;9.95;;
72115;SDS011;59991;52.140;5.428;2023-07-09T03:09:06;11.47;;;9.80;;
72115;SDS011;59991;52.140;5.428;2023-07-09T03:09:38;10.88;;;9.77;;
72115;SDS011;59991;52.140;5.428;2023-07-09T03:10:09;14.93;;;10.93;;
72115;SDS011;59991;52.140;5.428;2023-07-09T03:10:41;13.40;;;10.02;;
72115;SDS011;59991;52.140;5.428;2023-07-09T03:11:13;11.38;;;9.73;;
72115;SDS011;59991;52.140;5.428;2023-07-09T03:11:46;11.82;;;10.50;;
72115;SDS011;59991;52.140;5.428;2023-07-09T03:12:17;17.10;;;11.27;;
72115;SDS011;59991;52.140;5.428;2023-07-09T03:12:49;12.80;;;9.77;;
72115;SDS011;59991;52.140;5.428;2023-07-09T03:13:20;12.20;;;10.70;;
72115;SDS011;59991;52.140;5.428;2023-07-09T03:13:51;11.80;;;10.13;;
72115;SDS011;59991;52.140;5.428;2023-07-09T03:14:24;12.30;;;9.70;;
72115;SDS011;59991;52.140;5.428;2023-07-09T03:14:55;12.43;;;9.77;;
72115;SDS011;59991;52.140;5.428;2023-07-09T03:15:27;12.80;;;10.40;;
72115;SDS011;59991;52.140;5.428;2023-07-09T03:15:58;14.50;;;10.88;;
72115;SDS011;59991;52.140;5.428;2023-07-09T03:16:31;15.85;;;11.00;;
72115;SDS011;59991;52.140;5.428;2023-07-09T03:17:04;13.38;;;10.52;;
72115;SDS011;59991;52.140;5.428;2023-07-09T03:17:35;16.20;;;11.48;;
72115;SDS011;59991;52.140;5.428;2023-07-09T03:18:07;15.50;;;11.70;;
72115;SDS011;59991;52.140;5.428;2023-07-09T03:18:38;13.15;;;9.98;;
72115;SDS011;59991;52.140;5.428;2023-07-09T03:19:10;12.02;;;10.40;;